Welcome to the Rise Mirror


Files can be downloaded using http://mirror.rise.ph and ftp://mirror.rise.ph

[ICO]NameLast modifiedSize

[PARENTDIR]Parent Directory  -
[DIR]akonadi-calendar/2017-03-10 04:37 -
[DIR]akonadi-contacts/2017-03-10 04:37 -
[DIR]akonadi-import-wizard/2017-03-10 04:37 -
[DIR]akonadi-mime/2017-03-10 04:37 -
[DIR]akonadi-notes/2017-03-10 04:37 -
[DIR]akonadi-search/2017-03-10 04:37 -
[DIR]akonadi/2017-03-10 04:37 -
[DIR]akonadiconsole/2017-03-10 04:37 -
[DIR]akregator/2017-03-10 04:37 -
[DIR]analitza/2017-03-10 04:37 -
[DIR]ark/2017-03-10 04:37 -
[DIR]artikulate/2017-03-10 04:37 -
[DIR]attica/2016-08-25 18:46 -
[DIR]audiocd-kio/2017-03-10 04:37 -
[DIR]baloo-widgets/2017-03-10 04:37 -
[DIR]blinken/2017-03-10 04:37 -
[DIR]blogilo/2017-03-10 04:37 -
[DIR]bomber/2017-03-10 04:37 -
[DIR]bovo/2017-03-10 04:37 -
[DIR]calendarjanitor/2017-03-10 04:37 -
[DIR]calendarsupport/2017-03-10 04:37 -
[DIR]cantor/2017-03-10 04:37 -
[DIR]cervisia/2017-03-10 04:37 -
[DIR]dolphin-plugins/2017-03-10 04:37 -
[DIR]dolphin/2017-03-10 04:37 -
[DIR]dragon/2017-03-10 04:37 -
[DIR]drkonqi/2016-08-25 18:46 -
[DIR]eventviews/2017-03-10 04:37 -
[DIR]ffmpegthumbs/2017-03-10 04:37 -
[DIR]filelight/2017-03-10 04:37 -
[DIR]gpgmepp/2016-12-30 01:46 -
[DIR]granatier/2017-03-10 04:37 -
[DIR]grantlee-editor/2017-03-10 04:37 -
[DIR]grantleetheme/2017-03-10 04:37 -
[DIR]gwenview/2017-03-10 04:37 -
[DIR]incidenceeditor/2017-03-10 04:37 -
[DIR]jovie/2017-03-10 04:37 -
[DIR]juk/2017-03-10 04:37 -
[DIR]k3b/2017-03-24 05:36 -
[DIR]kabcclient/2016-07-09 05:02 -
[DIR]kaccessible/2017-03-10 04:37 -
[DIR]kaccounts-integration/2017-03-10 04:37 -
[DIR]kaccounts-providers/2017-03-10 04:37 -
[DIR]kaddressbook/2017-03-10 04:37 -
[DIR]kajongg/2017-03-10 04:37 -
[DIR]kalarm/2017-03-10 04:37 -
[DIR]kalarmcal/2017-03-10 04:37 -
[DIR]kalgebra/2017-03-10 04:37 -
[DIR]kalzium/2017-03-10 04:37 -
[DIR]kamera/2017-03-10 04:37 -
[DIR]kanagram/2017-03-10 04:37 -
[DIR]kapman/2017-03-10 04:37 -
[DIR]kapptemplate/2017-03-10 04:37 -
[DIR]kate/2017-03-10 04:37 -
[DIR]katepart/2017-03-24 05:36 -
[DIR]katomic/2017-03-10 04:37 -
[DIR]kblackbox/2017-03-10 04:37 -
[DIR]kblocks/2017-03-10 04:37 -
[DIR]kblog/2017-03-10 04:37 -
[DIR]kbounce/2017-03-10 04:37 -
[DIR]kbreakout/2017-03-10 04:37 -
[DIR]kbruch/2017-03-10 04:37 -
[DIR]kcachegrind/2017-03-10 04:37 -
[DIR]kcalc/2017-03-10 04:37 -
[DIR]kcalcore/2017-03-10 04:37 -
[DIR]kcalutils/2017-03-10 04:37 -
[DIR]kcharselect/2017-03-10 04:37 -
[DIR]kcmshell/2016-08-25 18:46 -
[DIR]kcolorchooser/2017-03-10 04:37 -
[DIR]kcontacts/2017-03-10 04:37 -
[DIR]kcontrol/2016-08-25 18:46 -
[DIR]kcron/2017-03-10 04:37 -
[DIR]kde-apps-meta/2017-03-14 04:31 -
[DIR]kde-dev-scripts/2017-03-10 04:37 -
[DIR]kde-dev-utils/2017-03-10 04:37 -
[DIR]kde-l10n/2017-03-10 04:37 -
[DIR]kde-meta/2017-03-10 04:37 -
[DIR]kde4-l10n/2017-03-10 04:37 -
[DIR]kdeaccessibility-meta/2017-03-10 04:37 -
[DIR]kdeadmin-meta/2017-03-10 04:37 -
[DIR]kdebase-data/2016-08-25 18:46 -
[DIR]kdebase-desktoptheme/2016-08-25 18:46 -
[DIR]kdebase-kioslaves/2016-08-25 18:46 -
[DIR]kdebase-menu-icons/2016-08-25 18:46 -
[DIR]kdebase-menu/2016-08-25 18:46 -
[DIR]kdebase-meta/2017-03-10 04:37 -
[DIR]kdebase-runtime-meta/2016-08-25 18:46 -
[DIR]kdebugdialog/2016-08-25 18:46 -
[DIR]kdebugsettings/2017-03-10 04:37 -
[DIR]kdecore-meta/2017-03-10 04:37 -
[DIR]kdeedu-data/2017-03-10 04:37 -
[DIR]kdeedu-meta/2017-03-17 03:30 -
[DIR]kdegames-meta/2017-03-10 04:37 -
[DIR]kdegraphics-meta/2017-03-10 04:37 -
[DIR]kdegraphics-mobipocket/2017-03-10 04:37 -
[DIR]kdemultimedia-meta/2017-03-10 04:37 -
[DIR]kdenetwork-filesharing/2017-03-10 04:37 -
[DIR]kdenetwork-meta/2017-03-10 04:37 -
[DIR]kdenlive/2017-03-10 04:37 -
[DIR]kdepasswd/2016-12-19 16:20 -
[DIR]kdepim-addons/2017-03-10 04:37 -
[DIR]kdepim-apps-libs/2017-03-10 04:37 -
[DIR]kdepim-common-libs/2017-03-11 03:18 -
[DIR]kdepim-kresources/2016-07-09 05:02 -
[DIR]kdepim-l10n/2017-03-10 04:37 -
[DIR]kdepim-meta/2017-03-10 04:37 -
[DIR]kdepim-runtime/2017-03-20 07:57 -
[DIR]kdepim-wizards/2016-07-06 19:43 -
[DIR]kdepimlibs/2017-03-11 03:19 -
[DIR]kdesdk-kioslaves/2017-03-10 04:37 -
[DIR]kdesdk-meta/2017-03-10 04:37 -
[DIR]kdesdk-thumbnailers/2017-03-10 04:37 -
[DIR]kdesu/2016-08-25 18:46 -
[DIR]kdeutils-meta/2017-03-14 04:30 -
[DIR]kdewebdev-meta/2017-03-10 04:37 -
[DIR]kdf/2017-03-10 04:37 -
[DIR]kdialog/2017-03-10 04:37 -
[DIR]kdiamond/2017-03-10 04:37 -
[DIR]kdontchangethehostname/2016-08-25 18:46 -
[DIR]keditbookmarks/2017-03-10 04:37 -
[DIR]keditfiletype/2016-08-25 18:46 -
[DIR]kfile/2016-08-25 18:46 -
[DIR]kfilereplace/2017-03-10 04:37 -
[DIR]kfind/2017-03-10 04:37 -
[DIR]kfloppy/2017-03-10 04:37 -
[DIR]kfmclient/2016-12-19 16:20 -
[DIR]kfourinline/2017-03-10 04:37 -
[DIR]kgeography/2017-03-10 04:37 -
[DIR]kget/2017-03-10 04:37 -
[DIR]kglobalaccel/2016-08-25 18:46 -
[DIR]kgoldrunner/2017-03-10 04:37 -
[DIR]kgpg/2017-03-10 04:37 -
[DIR]khangman/2017-03-10 04:37 -
[DIR]khelpcenter/2017-03-10 04:37 -
[DIR]kholidays/2017-03-10 04:37 -
[DIR]kiconfinder/2016-08-25 18:46 -
[DIR]kidentitymanagement/2017-03-10 04:37 -
[DIR]kig/2017-03-10 04:37 -
[DIR]kigo/2017-03-10 04:37 -
[DIR]killbots/2017-03-10 04:37 -
[DIR]kimagemapeditor/2017-03-10 04:37 -
[DIR]kimap/2017-03-10 04:37 -
[DIR]kimgio/2016-08-25 18:46 -
[DIR]kio-extras/2017-03-16 01:23 -
[DIR]kioclient/2016-08-25 18:46 -
[DIR]kiriki/2017-03-10 04:37 -
[DIR]kiten/2017-03-10 04:37 -
[DIR]kjots/2016-12-18 06:30 -
[DIR]kjumpingcube/2017-03-10 04:37 -
[DIR]kldap/2017-03-10 04:37 -
[DIR]kleopatra/2017-03-11 03:17 -
[DIR]klettres/2017-03-10 04:37 -
[DIR]klickety/2017-03-10 04:37 -
[DIR]klines/2017-03-10 04:37 -
[DIR]klinkstatus/2017-03-10 04:37 -
[DIR]kmag/2017-03-10 04:37 -
[DIR]kmahjongg/2017-03-10 04:37 -
[DIR]kmail-account-wizard/2017-03-10 04:37 -
[DIR]kmail/2017-03-11 03:17 -
[DIR]kmailtransport/2017-03-10 04:37 -
[DIR]kmbox/2017-03-10 04:37 -
[DIR]kmime/2017-03-10 04:37 -
[DIR]kmimetypefinder/2016-08-25 18:46 -
[DIR]kmines/2017-03-10 04:37 -
[DIR]kmix/2017-03-10 04:37 -
[DIR]kmousetool/2017-03-10 04:37 -
[DIR]kmouth/2017-03-10 04:37 -
[DIR]kmplot/2017-03-10 04:37 -
[DIR]knavalbattle/2017-03-10 04:37 -
[DIR]knetattach/2016-08-25 18:46 -
[DIR]knetwalk/2017-03-10 04:37 -
[DIR]knewstuff/2016-08-25 18:46 -
[DIR]knode/2016-07-09 05:02 -
[DIR]knotes/2017-03-10 04:37 -
[DIR]knotify/2016-08-25 18:46 -
[DIR]kolf/2017-03-10 04:37 -
[DIR]kollision/2017-03-10 04:37 -
[DIR]kolourpaint/2017-03-10 04:37 -
[DIR]kommander/2017-03-10 04:37 -
[DIR]kompare/2017-03-10 04:37 -
[DIR]konq-plugins/2016-12-19 16:20 -
[DIR]konqueror/2017-03-10 04:37 -
[DIR]konquest/2017-03-10 04:37 -
[DIR]konsole/2017-03-10 04:37 -
[DIR]konsolekalendar/2017-03-10 04:37 -
[DIR]konsolepart/2016-01-05 02:00 -
[DIR]kontact/2017-03-10 04:37 -
[DIR]kontactinterface/2017-03-10 04:37 -
[DIR]kopete/2017-03-22 06:15 -
[DIR]korganizer/2017-03-10 04:37 -
[DIR]kpasswdserver/2016-08-25 18:46 -
[DIR]kpat/2017-03-10 04:37 -
[DIR]kpimtextedit/2017-03-10 04:37 -
[DIR]kppp/2017-03-10 04:37 -
[DIR]kqtquickcharts/2017-03-10 04:37 -
[DIR]kquitapp/2016-08-25 18:46 -
[DIR]krdc/2017-03-10 04:37 -
[DIR]kreadconfig/2016-08-25 18:46 -
[DIR]kremotecontrol/2017-03-10 04:37 -
[DIR]kreversi/2017-03-10 04:37 -
[DIR]krfb/2017-03-10 04:37 -
[DIR]kross-interpreters/2017-03-10 04:37 -
[DIR]kruler/2017-03-10 04:37 -
[DIR]ksaneplugin/2017-03-10 04:37 -
[DIR]kscd/2017-03-10 04:37 -
[DIR]kshisen/2017-03-10 04:37 -
[DIR]ksirk/2017-03-10 04:37 -
[DIR]ksnakeduel/2017-03-10 04:37 -
[DIR]kspaceduel/2017-03-10 04:37 -
[DIR]ksquares/2017-03-10 04:37 -
[DIR]kstars/2017-03-10 04:37 -
[DIR]kstart/2016-08-25 18:46 -
[DIR]ksudoku/2017-03-10 04:37 -
[DIR]ksystemlog/2017-03-10 04:37 -
[DIR]kteatime/2017-03-10 04:37 -
[DIR]ktimer/2017-03-10 04:37 -
[DIR]ktimetracker/2016-07-09 05:02 -
[DIR]ktimezoned/2016-08-25 18:46 -
[DIR]ktnef/2016-12-17 04:35 -
[DIR]ktouch/2017-03-10 04:37 -
[DIR]ktp-accounts-kcm/2017-03-10 04:37 -
[DIR]ktp-approver/2017-03-10 04:37 -
[DIR]ktp-auth-handler/2017-03-10 04:37 -
[DIR]ktp-call-ui/2017-03-10 04:37 -
[DIR]ktp-common-internals/2017-03-10 04:37 -
[DIR]ktp-contact-list/2017-03-10 04:37 -
[DIR]ktp-contact-runner/2017-03-10 04:37 -
[DIR]ktp-desktop-applets/2017-03-10 04:37 -
[DIR]ktp-filetransfer-handler/2017-03-10 04:37 -
[DIR]ktp-kded-module/2017-03-10 04:37 -
[DIR]ktp-send-file/2017-03-10 04:37 -
[DIR]ktp-text-ui/2017-03-10 04:37 -
[DIR]ktraderclient/2016-08-25 18:46 -
[DIR]ktuberling/2017-03-10 04:37 -
[DIR]kturtle/2017-03-10 04:37 -
[DIR]kubrick/2017-03-10 04:37 -
[DIR]kuiserver/2016-08-25 18:46 -
[DIR]kurifilter-plugins/2016-08-25 18:46 -
[DIR]kwalletd/2016-11-12 16:32 -
[DIR]kwalletmanager/2017-03-10 04:37 -
[DIR]kwave/2017-03-10 04:37 -
[DIR]kwordquiz/2017-03-10 04:37 -
[DIR]kwrite/2017-03-10 04:37 -
[DIR]libgravatar/2017-03-10 04:37 -
[DIR]libkcddb/2017-03-10 04:37 -
[DIR]libkcompactdisc/2017-03-10 04:37 -
[DIR]libkdcraw/2017-03-10 04:37 -
[DIR]libkdegames/2017-03-10 04:37 -
[DIR]libkdepim/2017-03-10 04:37 -
[DIR]libkeduvocdocument/2017-03-10 04:37 -
[DIR]libkexiv2/2017-03-10 04:37 -
[DIR]libkface/2017-03-10 04:37 -
[DIR]libkgapi/2017-03-24 05:36 -
[DIR]libkgeomap/2017-03-10 04:37 -
[DIR]libkipi/2017-03-10 04:37 -
[DIR]libkleo/2017-03-22 06:14 -
[DIR]libkmahjongg/2017-03-10 04:37 -
[DIR]libkomparediff2/2017-03-10 04:37 -
[DIR]libkonq/2016-12-19 16:20 -
[DIR]libkpgp/2016-07-06 19:43 -
[DIR]libksane/2017-03-10 04:37 -
[DIR]libksieve/2017-03-10 04:37 -
[DIR]libktnef/2017-03-10 04:37 -
[DIR]lokalize/2017-03-10 04:37 -
[DIR]lskat/2017-03-10 04:37 -
[DIR]mailcommon/2017-03-10 04:37 -
[DIR]mailimporter/2017-03-10 04:37 -
[DIR]marble/2017-03-10 04:37 -
[DIR]mbox-importer/2017-03-10 04:37 -
[DIR]messagelib/2017-03-10 04:37 -
[DIR]minuet/2017-03-10 04:37 -
[DIR]nsplugins/2016-12-19 16:20 -
[DIR]okteta/2017-03-10 04:37 -
[DIR]okular/2017-03-10 04:37 -
[DIR]palapeli/2017-03-10 04:37 -
[DIR]parley/2017-03-10 04:37 -
[DIR]phonon-kde/2016-08-25 18:46 -
[DIR]picmi/2017-03-10 04:37 -
[DIR]pim-data-exporter/2017-03-10 04:37 -
[DIR]pim-sieve-editor/2017-03-10 04:37 -
[DIR]pim-storage-service-manager/2017-03-10 04:37 -
[DIR]pimcommon/2017-03-10 04:37 -
[DIR]plasma-apps/2016-12-19 16:20 -
[DIR]plasma-runtime/2016-08-25 18:46 -
[DIR]plasma-telepathy-meta/2017-03-10 04:37 -
[DIR]poxml/2017-03-10 04:37 -
[DIR]print-manager/2017-03-10 04:37 -
[DIR]pykde4/2017-03-22 02:10 -
[DIR]renamedlg-plugins/2016-08-25 18:46 -
[DIR]rocs/2017-03-10 04:37 -
[DIR]signon-kwallet-extension/2017-03-10 04:37 -
[DIR]solid-runtime/2016-10-30 22:45 -
[DIR]spectacle/2017-03-10 04:37 -
[DIR]step/2017-03-10 04:37 -
[DIR]svgpart/2017-03-10 04:37 -
[DIR]sweeper/2017-03-10 04:37 -
[DIR]syndication/2017-03-10 04:37 -
[DIR]thumbnailers/2017-03-10 04:37 -
[DIR]umbrello/2017-03-10 04:37 -
[DIR]zeroconf-ioslave/2017-03-10 04:37 -
[TXT]metadata.xml2015-08-25 04:30 279